sensor_id;sensor_type;location;lat;lon;timestamp;temperature;humidity
2839;DHT22;1427;48.510;9.060;2023-09-12T00:00:53;19.40;99.90
2839;DHT22;1427;48.510;9.060;2023-09-12T00:03:23;19.40;99.90
2839;DHT22;1427;48.510;9.060;2023-09-12T00:05:52;19.20;99.90
2839;DHT22;1427;48.510;9.060;2023-09-12T00:08:20;19.20;99.90
2839;DHT22;1427;48.510;9.060;2023-09-12T00:10:59;19.10;99.90
2839;DHT22;1427;48.510;9.060;2023-09-12T00:13:27;18.90;99.90
2839;DHT22;1427;48.510;9.060;2023-09-12T00:15:55;18.90;99.90
2839;DHT22;1427;48.510;9.060;2023-09-12T00:18:25;18.80;99.90
2839;DHT22;1427;48.510;9.060;2023-09-12T00:20:53;18.80;99.90
2839;DHT22;1427;48.510;9.060;2023-09-12T00:23:22;18.80;99.90
2839;DHT22;1427;48.510;9.060;2023-09-12T00:25:50;18.80;99.90
2839;DHT22;1427;48.510;9.060;2023-09-12T00:28:19;18.80;99.90
2839;DHT22;1427;48.510;9.060;2023-09-12T00:30:47;18.80;99.90
2839;DHT22;1427;48.510;9.060;2023-09-12T00:33:15;18.80;99.90
2839;DHT22;1427;48.510;9.060;2023-09-12T00:35:45;18.90;99.90
2839;DHT22;1427;48.510;9.060;2023-09-12T00:38:13;18.70;99.90
2839;DHT22;1427;48.510;9.060;2023-09-12T00:40:41;18.70;99.90
2839;DHT22;1427;48.510;9.060;2023-09-12T00:43:09;18.60;99.90
2839;DHT22;1427;48.510;9.060;2023-09-12T00:45:38;18.80;99.90
2839;DHT22;1427;48.510;9.060;2023-09-12T00:48:07;18.70;99.90
2839;DHT22;1427;48.510;9.060;2023-09-12T00:50:36;18.70;99.90
2839;DHT22;1427;48.510;9.060;2023-09-12T00:53:07;18.70;99.90
2839;DHT22;1427;48.510;9.060;2023-09-12T00:55:38;18.80;99.90
2839;DHT22;1427;48.510;9.060;2023-09-12T00:58:07;18.70;99.90
2839;DHT22;1427;48.510;9.060;2023-09-12T01:00:35;18.60;99.90
2839;DHT22;1427;48.510;9.060;2023-09-12T01:03:04;18.60;99.90
2839;DHT22;1427;48.510;9.060;2023-09-12T01:05:32;18.60;99.90
2839;DHT22;1427;48.510;9.060;2023-09-12T01:08:01;18.50;99.90
2839;DHT22;1427;48.510;9.060;2023-09-12T01:10:31;18.50;99.90
2839;DHT22;1427;48.510;9.060;2023-09-12T01:12:59;18.40;99.90
2839;DHT22;1427;48.510;9.060;2023-09-12T01:15:27;18.30;99.90
2839;DHT22;1427;48.510;9.060;2023-09-12T01:17:56;18.20;99.90
2839;DHT22;1427;48.510;9.060;2023-09-12T01:20:27;18.20;99.90
2839;DHT22;1427;48.510;9.060;2023-09-12T01:23:04;18.20;99.90
2839;DHT22;1427;48.510;9.060;2023-09-12T01:26:00;18.20;99.90
2839;DHT22;1427;48.510;9.060;2023-09-12T01:28:31;18.10;99.90
2839;DHT22;1427;48.510;9.060;2023-09-12T01:31:02;18.10;99.90
2839;DHT22;1427;48.510;9.060;2023-09-12T01:33:31;18.10;99.90
2839;DHT22;1427;48.510;9.060;2023-09-12T01:35:59;18.10;99.90
2839;DHT22;1427;48.510;9.060;2023-09-12T01:38:28;18.10;99.90
2839;DHT22;1427;48.510;9.060;2023-09-12T01:40:56;18.10;99.90
2839;DHT22;1427;48.510;9.060;2023-09-12T01:43:26;18.10;99.90
2839;DHT22;1427;48.510;9.060;2023-09-12T01:45:58;18.00;99.90
2839;DHT22;1427;48.510;9.060;2023-09-12T01:48:32;18.00;99.90
2839;DHT22;1427;48.510;9.060;2023-09-12T01:51:01;17.90;99.90
2839;DHT22;1427;48.510;9.060;2023-09-12T01:53:31;18.00;99.90
2839;DHT22;1427;48.510;9.060;2023-09-12T01:56:01;17.90;99.90
2839;DHT22;1427;48.510;9.060;2023-09-12T01:58:29;17.80;99.90
2839;DHT22;1427;48.510;9.060;2023-09-12T02:00:59;17.80;99.90
2839;DHT22;1427;48.510;9.060;2023-09-12T02:03:28;17.90;99.90
2839;DHT22;1427;48.510;9.060;2023-09-12T02:05:56;17.90;99.90
2839;DHT22;1427;48.510;9.060;2023-09-12T02:08:24;17.90;99.90
2839;DHT22;1427;48.510;9.060;2023-09-12T02:10:52;17.80;99.90
2839;DHT22;1427;48.510;9.060;2023-09-12T02:13:20;17.80;99.90
2839;DHT22;1427;48.510;9.060;2023-09-12T02:15:48;17.80;99.90
2839;DHT22;1427;48.510;9.060;2023-09-12T02:18:18;18.00;99.90
2839;DHT22;1427;48.510;9.060;2023-09-12T02:20:46;17.80;99.90
2839;DHT22;1427;48.510;9.060;2023-09-12T02:23:15;17.80;99.90
2839;DHT22;1427;48.510;9.060;2023-09-12T02:25:43;17.80;99.90
2839;DHT22;1427;48.510;9.060;2023-09-12T02:28:11;17.70;99.90
2839;DHT22;1427;48.510;9.060;2023-09-12T02:30:39;17.60;99.90
2839;DHT22;1427;48.510;9.060;2023-09-12T02:33:08;17.50;99.90
2839;DHT22;1427;48.510;9.060;2023-09-12T02:35:37;17.30;99.90
2839;DHT22;1427;48.510;9.060;2023-09-12T02:38:05;17.30;99.90
2839;DHT22;1427;48.510;9.060;2023-09-12T02:40:34;17.30;99.90
2839;DHT22;1427;48.510;9.060;2023-09-12T02:43:02;17.30;99.90
2839;DHT22;1427;48.510;9.060;2023-09-12T02:45:30;17.50;99.90
2839;DHT22;1427;48.510;9.060;2023-09-12T02:47:58;17.70;99.90
2839;DHT22;1427;48.510;9.060;2023-09-12T02:50:27;17.60;99.90
2839;DHT22;1427;48.510;9.060;2023-09-12T02:52:56;17.50;99.90
2839;DHT22;1427;48.510;9.060;2023-09-12T02:55:24;17.40;99.90
2839;DHT22;1427;48.510;9.060;2023-09-12T02:57:52;17.30;99.90
2839;DHT22;1427;48.510;9.060;2023-09-12T03:00:21;17.40;99.90
2839;DHT22;1427;48.510;9.060;2023-09-12T03:02:49;17.20;99.90
2839;DHT22;1427;48.510;9.060;2023-09-12T03:05:18;17.10;99.90
2839;DHT22;1427;48.510;9.060;2023-09-12T03:07:46;17.10;99.90
2839;DHT22;1427;48.510;9.060;2023-09-12T03:10:16;17.10;99.90
2839;DHT22;1427;48.510;9.060;2023-09-12T03:12:44;17.10;99.90
2839;DHT22;1427;48.510;9.060;2023-09-12T03:15:12;17.10;99.90
2839;DHT22;1427;48.510;9.060;2023-09-12T03:17:40;17.10;99.90
2839;DHT22;1427;48.510;9.060;2023-09-12T03:20:10;17.10;99.90
2839;DHT22;1427;48.510;9.060;2023-09-12T03:22:38;17.10;99.90
2839;DHT22;1427;48.510;9.060;2023-09-12T03:25:07;17.20;99.90
2839;DHT22;1427;48.510;9.060;2023-09-12T03:27:36;17.10;99.90
2839;DHT22;1427;48.510;9.060;2023-09-12T03:30:05;17.10;99.90
2839;DHT22;1427;48.510;9.060;2023-09-12T03:32:34;17.10;99.90
2839;DHT22;1427;48.510;9.060;2023-09-12T03:35:02;17.10;99.90
2839;DHT22;1427;48.510;9.060;2023-09-12T03:37:30;17.10;99.90
2839;DHT22;1427;48.510;9.060;2023-09-12T03:39:59;17.10;99.90
2839;DHT22;1427;48.510;9.060;2023-09-12T03:42:27;17.00;99.90
2839;DHT22;1427;48.510;9.060;2023-09-12T03:45:10;16.90;99.90
2839;DHT22;1427;48.510;9.060;2023-09-12T03:47:38;16.90;99.90
2839;DHT22;1427;48.510;9.060;2023-09-12T03:50:07;16.90;99.90
2839;DHT22;1427;48.510;9.060;2023-09-12T03:52:35;16.90;99.90
2839;DHT22;1427;48.510;9.060;2023-09-12T03:55:04;16.90;99.90
2839;DHT22;1427;48.510;9.060;2023-09-12T03:57:32;17.00;99.90
2839;DHT22;1427;48.510;9.060;2023-09-12T04:00:00;17.00;99.90
2839;DHT22;1427;48.510;9.060;2023-09-12T04:02:32;17.00;99.90
2839;DHT22;1427;48.510;9.060;2023-09-12T04:05:00;17.00;99.90
2839;DHT22;1427;48.510;9.060;2023-09-12T04:07:28;16.80;99.90
2839;DHT22;1427;48.510;9.060;2023-09-12T04:09:56;16.90;99.90
2839;DHT22;1427;48.510;9.060;2023-09-12T04:12:24;16.80;99.90
2839;DHT22;1427;48.510;9.060;2023-09-12T04:14:53;16.80;99.90
2839;DHT22;1427;48.510;9.060;2023-09-12T04:17:21;16.60;99.90
2839;DHT22;1427;48.510;9.060;2023-09-12T04:19:52;16.70;99.90
2839;DHT22;1427;48.510;9.060;2023-09-12T04:22:20;16.70;99.90
2839;DHT22;1427;48.510;9.060;2023-09-12T04:24:49;16.70;99.90
2839;DHT22;1427;48.510;9.060;2023-09-12T04:27:17;16.60;99.90
2839;DHT22;1427;48.510;9.060;2023-09-12T04:29:46;16.60;99.90
2839;DHT22;1427;48.510;9.060;2023-09-12T04:32:14;16.60;99.90
2839;DHT22;1427;48.510;9.060;2023-09-12T04:34:43;16.80;99.90
2839;DHT22;1427;48.510;9.060;2023-09-12T04:37:13;16.80;99.90
2839;DHT22;1427;48.510;9.060;2023-09-12T04:39:41;16.90;99.90
2839;DHT22;1427;48.510;9.060;2023-09-12T04:42:09;16.90;99.90
2839;DHT22;1427;48.510;9.060;2023-09-12T04:44:39;16.80;99.90
2839;DHT22;1427;48.510;9.060;2023-09-12T04:47:08;16.70;99.90
2839;DHT22;1427;48.510;9.060;2023-09-12T04:49:38;16.70;99.90
2839;DHT22;1427;48.510;9.060;2023-09-12T04:52:06;16.70;99.90
2839;DHT22;1427;48.510;9.060;2023-09-12T04:54:36;16.70;99.90
2839;DHT22;1427;48.510;9.060;2023-09-12T04:57:04;16.60;99.90
2839;DHT22;1427;48.510;9.060;2023-09-12T04:59:32;16.70;99.90
2839;DHT22;1427;48.510;9.060;2023-09-12T05:02:02;16.80;99.90
2839;DHT22;1427;48.510;9.060;2023-09-12T05:04:31;16.70;99.90
2839;DHT22;1427;48.510;9.060;2023-09-12T05:06:59;16.80;99.90
2839;DHT22;1427;48.510;9.060;2023-09-12T05:09:27;16.80;99.90
2839;DHT22;1427;48.510;9.060;2023-09-12T05:11:56;16.90;99.90
2839;DHT22;1427;48.510;9.060;2023-09-12T05:14:24;16.90;99.90
2839;DHT22;1427;48.510;9.060;2023-09-12T05:16:52;16.90;99.90
2839;DHT22;1427;48.510;9.060;2023-09-12T05:19:21;16.80;99.90
2839;DHT22;1427;48.510;9.060;2023-09-12T05:21:49;16.70;99.90
2839;DHT22;1427;48.510;9.060;2023-09-12T05:24:18;16.60;99.90
2839;DHT22;1427;48.510;9.060;2023-09-12T05:26:46;16.60;99.90
2839;DHT22;1427;48.510;9.060;2023-09-12T05:29:17;16.70;99.90
2839;DHT22;1427;48.510;9.060;2023-09-12T05:31:45;16.80;99.90
2839;DHT22;1427;48.510;9.060;2023-09-12T05:34:13;17.00;99.90
2839;DHT22;1427;48.510;9.060;2023-09-12T05:36:41;17.10;99.90
2839;DHT22;1427;48.510;9.060;2023-09-12T05:39:10;17.20;99.90
2839;DHT22;1427;48.510;9.060;2023-09-12T05:41:40;17.40;99.90
2839;DHT22;1427;48.510;9.060;2023-09-12T05:44:08;17.60;99.90
2839;DHT22;1427;48.510;9.060;2023-09-12T05:46:41;17.90;99.90
2839;DHT22;1427;48.510;9.060;2023-09-12T05:49:09;18.10;99.90
2839;DHT22;1427;48.510;9.060;2023-09-12T05:51:37;18.40;99.90
2839;DHT22;1427;48.510;9.060;2023-09-12T05:54:05;18.50;99.90
2839;DHT22;1427;48.510;9.060;2023-09-12T05:56:34;18.70;99.90
2839;DHT22;1427;48.510;9.060;2023-09-12T05:59:03;19.10;99.90
2839;DHT22;1427;48.510;9.060;2023-09-12T06:01:31;19.40;99.90
2839;DHT22;1427;48.510;9.060;2023-09-12T06:04:01;19.60;99.90
2839;DHT22;1427;48.510;9.060;2023-09-12T06:06:29;19.70;99.90
2839;DHT22;1427;48.510;9.060;2023-09-12T06:08:57;19.50;99.90
2839;DHT22;1427;48.510;9.060;2023-09-12T06:11:26;19.40;99.90
2839;DHT22;1427;48.510;9.060;2023-09-12T06:13:54;19.40;99.90
2839;DHT22;1427;48.510;9.060;2023-09-12T06:16:22;19.40;99.90
2839;DHT22;1427;48.510;9.060;2023-09-12T06:18:51;19.20;99.90
2839;DHT22;1427;48.510;9.060;2023-09-12T06:21:21;19.10;99.90
2839;DHT22;1427;48.510;9.060;2023-09-12T06:24:08;19.00;99.90
2839;DHT22;1427;48.510;9.060;2023-09-12T06:26:36;19.00;99.90
2839;DHT22;1427;48.510;9.060;2023-09-12T06:29:05;18.80;99.90
2839;DHT22;1427;48.510;9.060;2023-09-12T06:31:33;19.00;99.90
2839;DHT22;1427;48.510;9.060;2023-09-12T06:34:02;18.80;99.90
2839;DHT22;1427;48.510;9.060;2023-09-12T06:36:32;18.80;99.90
2839;DHT22;1427;48.510;9.060;2023-09-12T06:39:00;18.80;99.90
2839;DHT22;1427;48.510;9.060;2023-09-12T06:41:29;18.90;99.90
2839;DHT22;1427;48.510;9.060;2023-09-12T06:43:57;18.90;99.90
2839;DHT22;1427;48.510;9.060;2023-09-12T06:46:26;19.00;99.90
2839;DHT22;1427;48.510;9.060;2023-09-12T06:48:54;19.00;99.90
2839;DHT22;1427;48.510;9.060;2023-09-12T06:51:24;18.80;99.90
2839;DHT22;1427;48.510;9.060;2023-09-12T06:53:59;18.90;99.90
2839;DHT22;1427;48.510;9.060;2023-09-12T06:56:27;18.80;99.90
2839;DHT22;1427;48.510;9.060;2023-09-12T06:58:56;18.80;99.90
2839;DHT22;1427;48.510;9.060;2023-09-12T07:01:26;18.80;99.90
2839;DHT22;1427;48.510;9.060;2023-09-12T07:03:54;18.80;99.90
2839;DHT22;1427;48.510;9.060;2023-09-12T07:06:23;18.80;99.90
2839;DHT22;1427;48.510;9.060;2023-09-12T07:08:51;18.80;99.90
2839;DHT22;1427;48.510;9.060;2023-09-12T07:11:21;18.70;99.90
2839;DHT22;1427;48.510;9.060;2023-09-12T07:13:51;18.60;99.90
2839;DHT22;1427;48.510;9.060;2023-09-12T07:16:20;18.70;99.90
2839;DHT22;1427;48.510;9.060;2023-09-12T07:18:48;18.70;99.90
2839;DHT22;1427;48.510;9.060;2023-09-12T07:21:17;18.90;99.90
2839;DHT22;1427;48.510;9.060;2023-09-12T07:23:47;19.10;99.90
2839;DHT22;1427;48.510;9.060;2023-09-12T07:26:15;19.10;99.90
2839;DHT22;1427;48.510;9.060;2023-09-12T07:28:45;19.40;99.90
2839;DHT22;1427;48.510;9.060;2023-09-12T07:31:14;19.60;99.90
2839;DHT22;1427;48.510;9.060;2023-09-12T07:33:42;19.80;99.90
2839;DHT22;1427;48.510;9.060;2023-09-12T07:36:11;19.90;99.90
2839;DHT22;1427;48.510;9.060;2023-09-12T07:38:39;20.00;99.90
2839;DHT22;1427;48.510;9.060;2023-09-12T07:41:09;20.00;99.90
2839;DHT22;1427;48.510;9.060;2023-09-12T07:43:37;20.00;99.90
2839;DHT22;1427;48.510;9.060;2023-09-12T07:46:06;20.10;99.90
2839;DHT22;1427;48.510;9.060;2023-09-12T07:48:35;20.10;99.90
2839;DHT22;1427;48.510;9.060;2023-09-12T07:51:11;20.30;99.90
2839;DHT22;1427;48.510;9.060;2023-09-12T07:53:41;20.30;99.90
2839;DHT22;1427;48.510;9.060;2023-09-12T07:56:10;20.50;99.90
2839;DHT22;1427;48.510;9.060;2023-09-12T07:58:38;20.50;99.90
2839;DHT22;1427;48.510;9.060;2023-09-12T08:01:08;20.70;99.90
2839;DHT22;1427;48.510;9.060;2023-09-12T08:03:37;20.80;99.90
2839;DHT22;1427;48.510;9.060;2023-09-12T08:06:07;21.00;99.90
2839;DHT22;1427;48.510;9.060;2023-09-12T08:08:35;21.20;99.90
2839;DHT22;1427;48.510;9.060;2023-09-12T08:11:04;21.50;99.90
2839;DHT22;1427;48.510;9.060;2023-09-12T08:13:32;21.80;99.90
2839;DHT22;1427;48.510;9.060;2023-09-12T08:16:00;21.90;99.90
2839;DHT22;1427;48.510;9.060;2023-09-12T08:18:30;22.40;99.90
2839;DHT22;1427;48.510;9.060;2023-09-12T08:23:30;23.10;99.90
2839;DHT22;1427;48.510;9.060;2023-09-12T08:25:58;23.30;99.90
2839;DHT22;1427;48.510;9.060;2023-09-12T08:28:27;23.50;99.90
2839;DHT22;1427;48.510;9.060;2023-09-12T08:30:55;23.70;99.90
2839;DHT22;1427;48.510;9.060;2023-09-12T08:33:23;24.00;99.90
2839;DHT22;1427;48.510;9.060;2023-09-12T08:35:54;24.50;99.90
2839;DHT22;1427;48.510;9.060;2023-09-12T08:38:22;24.40;99.90
2839;DHT22;1427;48.510;9.060;2023-09-12T08:40:51;24.70;99.90
2839;DHT22;1427;48.510;9.060;2023-09-12T08:43:20;25.10;99.90
2839;DHT22;1427;48.510;9.060;2023-09-12T08:45:48;25.50;99.90
2839;DHT22;1427;48.510;9.060;2023-09-12T08:48:17;25.90;99.90
2839;DHT22;1427;48.510;9.060;2023-09-12T08:50:51;26.20;99.90
2839;DHT22;1427;48.510;9.060;2023-09-12T08:53:22;26.80;99.90
2839;DHT22;1427;48.510;9.060;2023-09-12T08:55:52;27.20;99.90
2839;DHT22;1427;48.510;9.060;2023-09-12T08:58:20;27.50;99.90
2839;DHT22;1427;48.510;9.060;2023-09-12T09:00:50;27.70;99.90
2839;DHT22;1427;48.510;9.060;2023-09-12T09:03:19;27.90;99.90
2839;DHT22;1427;48.510;9.060;2023-09-12T09:05:49;28.00;99.90
2839;DHT22;1427;48.510;9.060;2023-09-12T09:08:19;28.10;99.90
2839;DHT22;1427;48.510;9.060;2023-09-12T09:10:58;28.20;99.90
2839;DHT22;1427;48.510;9.060;2023-09-12T09:13:29;28.60;99.90
2839;DHT22;1427;48.510;9.060;2023-09-12T09:16:10;29.00;99.90
2839;DHT22;1427;48.510;9.060;2023-09-12T09:18:54;29.00;99.90
2839;DHT22;1427;48.510;9.060;2023-09-12T09:21:24;29.20;99.90
2839;DHT22;1427;48.510;9.060;2023-09-12T09:23:53;28.90;99.90
2839;DHT22;1427;48.510;9.060;2023-09-12T09:26:23;29.20;99.90
2839;DHT22;1427;48.510;9.060;2023-09-12T09:29:05;29.30;99.90
2839;DHT22;1427;48.510;9.060;2023-09-12T09:31:34;29.50;99.90
2839;DHT22;1427;48.510;9.060;2023-09-12T09:34:02;29.70;99.90
2839;DHT22;1427;48.510;9.060;2023-09-12T09:36:31;30.00;99.90
2839;DHT22;1427;48.510;9.060;2023-09-12T09:39:02;30.30;99.90
2839;DHT22;1427;48.510;9.060;2023-09-12T09:41:33;30.50;99.90
2839;DHT22;1427;48.510;9.060;2023-09-12T09:44:01;30.80;99.90
2839;DHT22;1427;48.510;9.060;2023-09-12T09:46:31;30.90;99.90
2839;DHT22;1427;48.510;9.060;2023-09-12T09:48:59;31.10;99.90
2839;DHT22;1427;48.510;9.060;2023-09-12T09:51:30;31.40;99.40
2839;DHT22;1427;48.510;9.060;2023-09-12T09:53:59;31.60;99.80
2839;DHT22;1427;48.510;9.060;2023-09-12T09:56:27;31.80;99.40
2839;DHT22;1427;48.510;9.060;2023-09-12T09:58:57;31.90;99.10
2839;DHT22;1427;48.510;9.060;2023-09-12T10:01:28;32.00;99.50
2839;DHT22;1427;48.510;9.060;2023-09-12T10:03:58;32.20;99.20
2839;DHT22;1427;48.510;9.060;2023-09-12T10:06:28;32.30;99.20
2839;DHT22;1427;48.510;9.060;2023-09-12T10:08:58;32.40;99.20
2839;DHT22;1427;48.510;9.060;2023-09-12T10:11:28;32.50;98.50
2839;DHT22;1427;48.510;9.060;2023-09-12T10:14:03;32.70;98.50
2839;DHT22;1427;48.510;9.060;2023-09-12T10:16:33;32.90;98.70
2839;DHT22;1427;48.510;9.060;2023-09-12T10:19:10;33.10;97.40
2839;DHT22;1427;48.510;9.060;2023-09-12T10:21:46;33.10;94.80
2839;DHT22;1427;48.510;9.060;2023-09-12T10:24:16;32.90;94.20
2839;DHT22;1427;48.510;9.060;2023-09-12T10:26:45;32.70;94.40
2839;DHT22;1427;48.510;9.060;2023-09-12T10:29:15;32.70;94.80
2839;DHT22;1427;48.510;9.060;2023-09-12T10:31:43;32.60;93.20
2839;DHT22;1427;48.510;9.060;2023-09-12T10:34:14;32.70;93.20
2839;DHT22;1427;48.510;9.060;2023-09-12T10:36:45;32.60;92.30
2839;DHT22;1427;48.510;9.060;2023-09-12T10:39:15;32.50;92.10
2839;DHT22;1427;48.510;9.060;2023-09-12T10:41:43;32.40;92.90
2839;DHT22;1427;48.510;9.060;2023-09-12T10:44:15;32.30;92.70
2839;DHT22;1427;48.510;9.060;2023-09-12T10:46:45;32.30;93.10
2839;DHT22;1427;48.510;9.060;2023-09-12T10:49:15;32.30;93.60
2839;DHT22;1427;48.510;9.060;2023-09-12T10:51:45;32.60;93.90
2839;DHT22;1427;48.510;9.060;2023-09-12T10:54:15;32.90;93.80
2839;DHT22;1427;48.510;9.060;2023-09-12T10:56:43;33.20;94.10
2839;DHT22;1427;48.510;9.060;2023-09-12T10:59:18;33.60;93.50
2839;DHT22;1427;48.510;9.060;2023-09-12T11:01:52;33.60;91.70
2839;DHT22;1427;48.510;9.060;2023-09-12T11:04:40;33.50;89.60
2839;DHT22;1427;48.510;9.060;2023-09-12T11:07:32;33.70;91.60
2839;DHT22;1427;48.510;9.060;2023-09-12T11:10:19;33.70;85.70
2839;DHT22;1427;48.510;9.060;2023-09-12T11:12:49;33.20;89.40
2839;DHT22;1427;48.510;9.060;2023-09-12T11:15:22;33.60;90.10
2839;DHT22;1427;48.510;9.060;2023-09-12T11:18:01;33.90;90.90
2839;DHT22;1427;48.510;9.060;2023-09-12T11:20:50;34.30;87.80
2839;DHT22;1427;48.510;9.060;2023-09-12T11:23:20;33.60;84.00
2839;DHT22;1427;48.510;9.060;2023-09-12T11:25:48;33.20;86.90
2839;DHT22;1427;48.510;9.060;2023-09-12T11:28:31;33.50;84.90
2839;DHT22;1427;48.510;9.060;2023-09-12T11:31:00;33.50;81.90
2839;DHT22;1427;48.510;9.060;2023-09-12T11:33:29;33.70;82.70
2839;DHT22;1427;48.510;9.060;2023-09-12T11:35:59;33.70;83.40
2839;DHT22;1427;48.510;9.060;2023-09-12T11:38:31;33.50;80.60
2839;DHT22;1427;48.510;9.060;2023-09-12T11:40:59;33.20;83.70
2839;DHT22;1427;48.510;9.060;2023-09-12T11:43:28;33.50;81.40
2839;DHT22;1427;48.510;9.060;2023-09-12T11:45:57;33.60;81.70
2839;DHT22;1427;48.510;9.060;2023-09-12T11:48:28;33.90;82.90
2839;DHT22;1427;48.510;9.060;2023-09-12T11:50:57;34.10;83.00
2839;DHT22;1427;48.510;9.060;2023-09-12T11:53:28;34.10;81.10
2839;DHT22;1427;48.510;9.060;2023-09-12T11:55:59;34.10;82.60
2839;DHT22;1427;48.510;9.060;2023-09-12T11:58:28;34.40;83.80
2839;DHT22;1427;48.510;9.060;2023-09-12T12:00:58;34.70;84.30
2839;DHT22;1427;48.510;9.060;2023-09-12T12:03:28;34.90;81.80
2839;DHT22;1427;48.510;9.060;2023-09-12T12:05:57;34.70;79.80
2839;DHT22;1427;48.510;9.060;2023-09-12T12:08:25;34.40;78.70
2839;DHT22;1427;48.510;9.060;2023-09-12T12:10:58;34.00;80.30
2839;DHT22;1427;48.510;9.060;2023-09-12T12:13:27;33.80;78.50
2839;DHT22;1427;48.510;9.060;2023-09-12T12:15:56;33.70;79.40
2839;DHT22;1427;48.510;9.060;2023-09-12T12:18:24;33.80;80.00
2839;DHT22;1427;48.510;9.060;2023-09-12T12:20:55;33.80;79.00
2839;DHT22;1427;48.510;9.060;2023-09-12T12:23:23;33.80;80.00
2839;DHT22;1427;48.510;9.060;2023-09-12T12:25:51;33.90;80.90
2839;DHT22;1427;48.510;9.060;2023-09-12T12:28:20;34.20;81.80
2839;DHT22;1427;48.510;9.060;2023-09-12T12:30:51;34.40;78.80
2839;DHT22;1427;48.510;9.060;2023-09-12T12:33:21;34.40;79.10
2839;DHT22;1427;48.510;9.060;2023-09-12T12:36:10;34.50;78.40
2839;DHT22;1427;48.510;9.060;2023-09-12T12:38:39;34.40;75.00
2839;DHT22;1427;48.510;9.060;2023-09-12T12:41:23;34.30;75.70
2839;DHT22;1427;48.510;9.060;2023-09-12T12:43:57;34.40;78.40
2839;DHT22;1427;48.510;9.060;2023-09-12T12:46:29;34.60;76.90
2839;DHT22;1427;48.510;9.060;2023-09-12T12:48:57;34.60;75.00
2839;DHT22;1427;48.510;9.060;2023-09-12T12:51:27;34.40;76.10
2839;DHT22;1427;48.510;9.060;2023-09-12T12:54:03;34.10;75.50
2839;DHT22;1427;48.510;9.060;2023-09-12T12:56:32;33.80;78.30
2839;DHT22;1427;48.510;9.060;2023-09-12T12:59:02;33.70;79.20
2839;DHT22;1427;48.510;9.060;2023-09-12T13:01:34;33.70;78.80
2839;DHT22;1427;48.510;9.060;2023-09-12T13:04:05;33.80;78.90
2839;DHT22;1427;48.510;9.060;2023-09-12T13:06:35;33.90;79.90
2839;DHT22;1427;48.510;9.060;2023-09-12T13:09:05;34.20;79.20
2839;DHT22;1427;48.510;9.060;2023-09-12T13:11:35;34.30;78.30
2839;DHT22;1427;48.510;9.060;2023-09-12T13:14:04;34.30;79.60
2839;DHT22;1427;48.510;9.060;2023-09-12T13:16:37;34.40;80.10
2839;DHT22;1427;48.510;9.060;2023-09-12T13:19:06;34.60;77.70
2839;DHT22;1427;48.510;9.060;2023-09-12T13:21:36;34.60;78.80
2839;DHT22;1427;48.510;9.060;2023-09-12T13:24:04;34.70;82.30
2839;DHT22;1427;48.510;9.060;2023-09-12T13:26:33;34.90;79.10
2839;DHT22;1427;48.510;9.060;2023-09-12T13:29:01;34.80;79.30
2839;DHT22;1427;48.510;9.060;2023-09-12T13:31:29;34.90;81.80
2839;DHT22;1427;48.510;9.060;2023-09-12T13:33:58;34.80;78.30
2839;DHT22;1427;48.510;9.060;2023-09-12T13:36:26;34.60;79.90
2839;DHT22;1427;48.510;9.060;2023-09-12T13:38:56;34.60;79.40
2839;DHT22;1427;48.510;9.060;2023-09-12T13:41:24;34.40;76.00
2839;DHT22;1427;48.510;9.060;2023-09-12T13:43:53;34.20;77.80
2839;DHT22;1427;48.510;9.060;2023-09-12T13:46:21;34.10;77.70
2839;DHT22;1427;48.510;9.060;2023-09-12T13:48:50;33.90;76.90
2839;DHT22;1427;48.510;9.060;2023-09-12T13:51:26;33.70;76.40
2839;DHT22;1427;48.510;9.060;2023-09-12T13:53:56;33.50;75.90
2839;DHT22;1427;48.510;9.060;2023-09-12T13:56:24;33.30;76.50
2839;DHT22;1427;48.510;9.060;2023-09-12T13:58:52;33.30;78.90
2839;DHT22;1427;48.510;9.060;2023-09-12T14:01:20;33.20;74.00
2839;DHT22;1427;48.510;9.060;2023-09-12T14:04:00;33.00;73.80
2839;DHT22;1427;48.510;9.060;2023-09-12T14:06:30;32.60;72.40
2839;DHT22;1427;48.510;9.060;2023-09-12T14:09:00;32.30;73.00
2839;DHT22;1427;48.510;9.060;2023-09-12T14:11:29;32.00;73.10
2839;DHT22;1427;48.510;9.060;2023-09-12T14:14:02;31.80;73.60
2839;DHT22;1427;48.510;9.060;2023-09-12T14:16:34;31.60;75.10
2839;DHT22;1427;48.510;9.060;2023-09-12T14:19:04;31.40;76.40
2839;DHT22;1427;48.510;9.060;2023-09-12T14:21:33;31.30;76.80
2839;DHT22;1427;48.510;9.060;2023-09-12T14:24:03;31.20;77.30
2839;DHT22;1427;48.510;9.060;2023-09-12T14:26:32;31.10;77.60
2839;DHT22;1427;48.510;9.060;2023-09-12T14:29:00;31.10;78.00
2839;DHT22;1427;48.510;9.060;2023-09-12T14:31:29;30.90;79.00
2839;DHT22;1427;48.510;9.060;2023-09-12T14:33:57;30.70;81.50
2839;DHT22;1427;48.510;9.060;2023-09-12T14:36:25;30.60;81.00
2839;DHT22;1427;48.510;9.060;2023-09-12T14:38:54;30.50;80.90
2839;DHT22;1427;48.510;9.060;2023-09-12T14:41:24;30.40;82.50
2839;DHT22;1427;48.510;9.060;2023-09-12T14:43:52;30.30;82.90
2839;DHT22;1427;48.510;9.060;2023-09-12T14:46:20;30.30;82.90
2839;DHT22;1427;48.510;9.060;2023-09-12T14:48:49;30.10;84.70
2839;DHT22;1427;48.510;9.060;2023-09-12T14:51:28;30.00;86.70
2839;DHT22;1427;48.510;9.060;2023-09-12T14:54:01;30.00;88.50
2839;DHT22;1427;48.510;9.060;2023-09-12T14:56:32;29.90;88.90
2839;DHT22;1427;48.510;9.060;2023-09-12T14:59:00;29.80;90.30
2839;DHT22;1427;48.510;9.060;2023-09-12T15:01:28;29.70;90.60
2839;DHT22;1427;48.510;9.060;2023-09-12T15:03:57;29.50;90.60
2839;DHT22;1427;48.510;9.060;2023-09-12T15:06:25;29.40;91.20
2839;DHT22;1427;48.510;9.060;2023-09-12T15:08:53;29.20;91.80
2839;DHT22;1427;48.510;9.060;2023-09-12T15:11:21;29.00;91.50
2839;DHT22;1427;48.510;9.060;2023-09-12T15:13:53;28.80;91.80
2839;DHT22;1427;48.510;9.060;2023-09-12T15:16:22;28.60;91.90
2839;DHT22;1427;48.510;9.060;2023-09-12T15:18:53;28.50;91.60
2839;DHT22;1427;48.510;9.060;2023-09-12T15:21:21;28.60;92.20
2839;DHT22;1427;48.510;9.060;2023-09-12T15:23:49;28.60;92.80
2839;DHT22;1427;48.510;9.060;2023-09-12T15:26:17;28.70;91.90
2839;DHT22;1427;48.510;9.060;2023-09-12T15:28:45;28.70;92.00
2839;DHT22;1427;48.510;9.060;2023-09-12T15:31:15;28.70;92.20
2839;DHT22;1427;48.510;9.060;2023-09-12T15:33:43;28.60;92.30
2839;DHT22;1427;48.510;9.060;2023-09-12T15:36:12;28.70;92.00
2839;DHT22;1427;48.510;9.060;2023-09-12T15:38:40;28.60;92.60
2839;DHT22;1427;48.510;9.060;2023-09-12T15:41:08;28.50;93.60
2839;DHT22;1427;48.510;9.060;2023-09-12T15:43:36;28.40;93.90
2839;DHT22;1427;48.510;9.060;2023-09-12T15:46:04;28.30;92.80
2839;DHT22;1427;48.510;9.060;2023-09-12T15:48:33;28.30;92.40
2839;DHT22;1427;48.510;9.060;2023-09-12T15:51:02;28.10;92.60
2839;DHT22;1427;48.510;9.060;2023-09-12T15:53:32;28.00;93.00
2839;DHT22;1427;48.510;9.060;2023-09-12T15:56:00;27.90;93.10
2839;DHT22;1427;48.510;9.060;2023-09-12T15:58:29;28.00;93.00
2839;DHT22;1427;48.510;9.060;2023-09-12T16:00:57;28.00;93.30
2839;DHT22;1427;48.510;9.060;2023-09-12T16:03:26;27.90;93.60
2839;DHT22;1427;48.510;9.060;2023-09-12T16:05:56;28.00;93.50
2839;DHT22;1427;48.510;9.060;2023-09-12T16:08:25;28.00;94.20
2839;DHT22;1427;48.510;9.060;2023-09-12T16:10:53;27.90;94.40
2839;DHT22;1427;48.510;9.060;2023-09-12T16:13:21;27.80;93.70
2839;DHT22;1427;48.510;9.060;2023-09-12T16:15:49;27.80;94.10
2839;DHT22;1427;48.510;9.060;2023-09-12T16:18:17;27.80;94.20
2839;DHT22;1427;48.510;9.060;2023-09-12T16:20:46;27.60;94.30